createdAt,value
2023-01-09T00:00:15.932Z,970.60
2023-01-09T00:01:15.889Z,970.54
2023-01-09T00:02:15.883Z,970.47
2023-01-09T00:03:15.859Z,970.57
2023-01-09T00:04:15.912Z,970.57
2023-01-09T00:05:15.891Z,970.57
2023-01-09T00:06:15.825Z,970.53
2023-01-09T00:07:15.810Z,970.56
2023-01-09T00:08:15.819Z,970.57
2023-01-09T00:09:15.801Z,970.52
2023-01-09T00:10:15.817Z,970.53
2023-01-09T00:11:15.782Z,970.58
2023-01-09T00:12:15.761Z,970.57
2023-01-09T00:13:15.765Z,970.51
2023-01-09T00:14:15.764Z,970.54
2023-01-09T00:15:15.730Z,970.52
2023-01-09T00:16:15.733Z,970.51
2023-01-09T00:17:15.717Z,970.52
2023-01-09T00:18:15.702Z,970.50
2023-01-09T00:19:15.712Z,970.45
2023-01-09T00:20:15.717Z,970.46
2023-01-09T00:21:15.670Z,970.48
2023-01-09T00:22:15.657Z,970.38
2023-01-09T00:23:15.639Z,970.38
2023-01-09T00:24:15.645Z,970.39
2023-01-09T00:25:15.635Z,970.45
2023-01-09T00:26:15.627Z,970.42
2023-01-09T00:27:15.612Z,970.43
2023-01-09T00:28:15.606Z,970.40
2023-01-09T00:29:15.598Z,970.39
2023-01-09T00:30:15.605Z,970.38
2023-01-09T00:31:15.582Z,970.40
2023-01-09T00:32:15.570Z,970.35
2023-01-09T00:33:15.549Z,970.33
2023-01-09T00:34:15.557Z,970.32
2023-01-09T00:35:15.526Z,970.30
2023-01-09T00:36:15.533Z,970.29
2023-01-09T00:37:15.521Z,970.27
2023-01-09T00:38:15.510Z,970.28
2023-01-09T00:39:15.518Z,970.30
2023-01-09T00:40:15.484Z,970.30
2023-01-09T00:41:15.471Z,970.28
2023-01-09T00:42:15.457Z,970.27
2023-01-09T00:43:15.448Z,970.28
2023-01-09T00:44:15.451Z,970.25
2023-01-09T00:45:16.428Z,970.27
2023-01-09T00:46:15.487Z,970.29
2023-01-09T00:47:15.405Z,970.28
2023-01-09T00:48:15.396Z,970.24
2023-01-09T00:49:15.419Z,970.22
2023-01-09T00:50:15.374Z,970.25
2023-01-09T00:51:15.367Z,970.30
2023-01-09T00:52:15.360Z,970.21
2023-01-09T00:53:15.360Z,970.17
2023-01-09T00:54:15.354Z,970.21
2023-01-09T00:55:15.329Z,970.21
2023-01-09T00:56:15.339Z,970.18
2023-01-09T00:57:15.334Z,970.16
2023-01-09T00:58:15.323Z,970.17
2023-01-09T00:59:15.321Z,970.18
2023-01-09T01:00:15.294Z,970.17
2023-01-09T01:01:15.404Z,970.17
2023-01-09T01:02:15.472Z,970.15
2023-01-09T01:03:15.253Z,970.11
2023-01-09T01:04:15.263Z,970.12
2023-01-09T01:05:15.231Z,970.14
2023-01-09T01:06:15.227Z,970.15
2023-01-09T01:07:15.217Z,970.12
2023-01-09T01:08:15.215Z,970.12
2023-01-09T01:09:15.199Z,970.12
2023-01-09T01:10:15.233Z,970.18
2023-01-09T01:11:15.176Z,970.13
2023-01-09T01:12:15.161Z,970.16
2023-01-09T01:13:15.154Z,970.16
2023-01-09T01:14:15.166Z,970.15
2023-01-09T01:15:15.161Z,970.10
2023-01-09T01:16:15.120Z,970.09
2023-01-09T01:17:15.138Z,970.15
2023-01-09T01:18:15.099Z,970.14
2023-01-09T01:19:15.401Z,970.16
2023-01-09T01:20:15.095Z,970.13
2023-01-09T01:21:15.074Z,970.11
2023-01-09T01:22:15.076Z,970.16
2023-01-09T01:23:15.048Z,970.14
2023-01-09T01:24:15.049Z,970.18
2023-01-09T01:25:15.036Z,970.14
2023-01-09T01:26:15.034Z,970.16
2023-01-09T01:27:15.026Z,970.15
2023-01-09T01:28:16.015Z,970.20
2023-01-09T01:29:14.993Z,970.15
2023-01-09T01:30:14.997Z,970.12
2023-01-09T01:31:14.970Z,970.18
2023-01-09T01:32:14.976Z,970.13
2023-01-09T01:33:14.950Z,970.10
2023-01-09T01:34:15.022Z,970.11
2023-01-09T01:35:14.933Z,970.17
2023-01-09T01:36:14.930Z,970.13
2023-01-09T01:37:14.914Z,970.15
2023-01-09T01:38:14.910Z,970.14
2023-01-09T01:39:14.909Z,970.13
2023-01-09T01:40:14.883Z,970.10
2023-01-09T01:41:14.880Z,970.13
2023-01-09T01:42:14.859Z,970.10
2023-01-09T01:43:14.866Z,970.07
2023-01-09T01:44:14.861Z,970.12
2023-01-09T01:45:14.834Z,970.08
2023-01-09T01:46:14.839Z,970.04
2023-01-09T01:47:14.817Z,970.04
2023-01-09T01:48:14.796Z,970.11
2023-01-09T01:49:14.800Z,970.07
2023-01-09T01:50:14.794Z,970.05
2023-01-09T01:51:46.672Z,970.10
2023-01-09T01:52:14.765Z,970.06
2023-01-09T01:53:14.747Z,969.98
2023-01-09T01:54:14.739Z,970.04
2023-01-09T01:55:14.747Z,970.05
2023-01-09T01:56:14.742Z,969.97
2023-01-09T01:57:14.702Z,970.05
2023-01-09T01:58:14.701Z,970.02
2023-01-09T01:59:14.708Z,969.95
2023-01-09T02:00:14.675Z,970.01
2023-01-09T02:01:14.769Z,970.00
2023-01-09T02:02:14.811Z,969.98
2023-01-09T02:03:14.653Z,969.95
2023-01-09T02:04:14.652Z,969.92
2023-01-09T02:05:14.640Z,969.93
2023-01-09T02:06:14.630Z,969.81
2023-01-09T02:07:14.613Z,969.90
2023-01-09T02:08:14.617Z,969.90
2023-01-09T02:09:14.616Z,969.89
2023-01-09T02:10:14.590Z,969.90
2023-01-09T02:11:14.601Z,969.88
2023-01-09T02:12:14.565Z,969.84
2023-01-09T02:13:14.566Z,969.85
2023-01-09T02:14:14.569Z,969.87
2023-01-09T02:15:14.537Z,969.75
2023-01-09T02:16:14.560Z,969.82
2023-01-09T02:17:14.517Z,969.79
2023-01-09T02:18:14.511Z,969.75
2023-01-09T02:19:14.528Z,969.80
2023-01-09T02:20:14.506Z,969.68
2023-01-09T02:21:14.475Z,969.75
2023-01-09T02:22:14.471Z,969.78
2023-01-09T02:23:14.465Z,969.67
2023-01-09T02:24:14.488Z,969.68
2023-01-09T02:25:14.461Z,969.63
2023-01-09T02:26:14.424Z,969.62
2023-01-09T02:27:14.437Z,969.56
2023-01-09T02:28:14.413Z,969.52
2023-01-09T02:29:14.418Z,969.50
2023-01-09T02:30:14.389Z,969.50
2023-01-09T02:31:14.402Z,969.47
2023-01-09T02:32:14.364Z,969.46
2023-01-09T02:33:14.381Z,969.46
2023-01-09T02:34:14.345Z,969.48
2023-01-09T02:35:14.345Z,969.44
2023-01-09T02:36:14.358Z,969.46
2023-01-09T02:37:14.321Z,969.45
2023-01-09T02:38:14.310Z,969.42
2023-01-09T02:39:14.308Z,969.38
2023-01-09T02:40:14.284Z,969.33
2023-01-09T02:41:14.285Z,969.37
2023-01-09T02:42:14.264Z,969.38
2023-01-09T02:43:14.256Z,969.40
2023-01-09T02:44:14.254Z,969.33
2023-01-09T02:45:14.252Z,969.37
2023-01-09T02:46:14.239Z,969.40
2023-01-09T02:47:14.243Z,969.34
2023-01-09T02:48:14.208Z,969.38
2023-01-09T02:49:14.190Z,969.44
2023-01-09T02:50:14.191Z,969.39
2023-01-09T02:51:14.203Z,969.38
2023-01-09T02:52:14.184Z,969.45
2023-01-09T02:53:14.159Z,969.41
2023-01-09T02:54:14.152Z,969.40
2023-01-09T02:55:14.146Z,969.45
2023-01-09T02:56:14.133Z,969.42
2023-01-09T02:57:14.131Z,969.36
2023-01-09T02:58:14.143Z,969.36
2023-01-09T02:59:14.095Z,969.34
2023-01-09T03:00:14.103Z,969.36
2023-01-09T03:01:14.172Z,969.31
2023-01-09T03:02:14.089Z,969.27
2023-01-09T03:03:14.120Z,969.29
2023-01-09T03:04:14.062Z,969.33
2023-01-09T03:05:14.035Z,969.29
2023-01-09T03:06:14.026Z,969.28
2023-01-09T03:07:14.022Z,969.21
2023-01-09T03:08:14.034Z,969.27
2023-01-09T03:09:13.998Z,969.30
2023-01-09T03:10:14.015Z,969.20
2023-01-09T03:11:13.985Z,969.25
2023-01-09T03:12:13.961Z,969.26
2023-01-09T03:13:14.020Z,969.26
2023-01-09T03:14:13.956Z,969.23
2023-01-09T03:15:13.941Z,969.26
2023-01-09T03:16:13.963Z,969.25
2023-01-09T03:17:13.909Z,969.19
2023-01-09T03:18:13.907Z,969.14
2023-01-09T03:19:13.911Z,969.18
2023-01-09T03:20:13.881Z,969.23
2023-01-09T03:21:13.896Z,969.19
2023-01-09T03:22:13.863Z,969.23
2023-01-09T03:23:13.851Z,969.22
2023-01-09T03:24:13.851Z,969.22
2023-01-09T03:25:13.831Z,969.25
2023-01-09T03:26:13.836Z,969.27
2023-01-09T03:27:13.824Z,969.29
2023-01-09T03:28:13.807Z,969.29
2023-01-09T03:29:13.802Z,969.25
2023-01-09T03:30:13.800Z,969.30
2023-01-09T03:31:13.818Z,969.34
2023-01-09T03:32:13.779Z,969.35
2023-01-09T03:33:13.777Z,969.28
2023-01-09T03:34:13.746Z,969.34
2023-01-09T03:35:13.742Z,969.34
2023-01-09T03:36:13.746Z,969.34
2023-01-09T03:37:13.728Z,969.33
2023-01-09T03:38:13.731Z,969.36
2023-01-09T03:39:13.692Z,969.35
2023-01-09T03:40:13.722Z,969.27
2023-01-09T03:41:13.716Z,969.32
2023-01-09T03:42:13.669Z,969.34
2023-01-09T03:43:13.659Z,969.35
2023-01-09T03:44:13.636Z,969.44
2023-01-09T03:45:14.707Z,969.40
2023-01-09T03:46:13.665Z,969.49
2023-01-09T03:47:13.625Z,969.49
2023-01-09T03:48:13.613Z,969.48
2023-01-09T03:49:13.613Z,969.43
2023-01-09T03:50:13.581Z,969.48
2023-01-09T03:51:13.571Z,969.50
2023-01-09T03:52:13.576Z,969.50
2023-01-09T03:53:13.562Z,969.50
2023-01-09T03:54:13.578Z,969.46
2023-01-09T03:55:15.520Z,969.49
2023-01-09T03:56:14.531Z,969.45
2023-01-09T03:57:13.516Z,969.46
2023-01-09T03:58:13.509Z,969.52
2023-01-09T03:59:13.500Z,969.49
2023-01-09T04:00:13.508Z,969.58
2023-01-09T04:01:13.553Z,969.61
2023-01-09T04:02:13.612Z,969.55
2023-01-09T04:03:13.458Z,969.61
2023-01-09T04:04:13.503Z,969.64
2023-01-09T04:05:13.443Z,969.62
2023-01-09T04:06:13.447Z,969.63
2023-01-09T04:07:13.431Z,969.60
2023-01-09T04:08:13.435Z,969.53
2023-01-09T04:09:13.425Z,969.45
2023-01-09T04:10:13.395Z,969.49
2023-01-09T04:11:13.402Z,969.43
2023-01-09T04:12:13.372Z,969.46
2023-01-09T04:13:13.376Z,969.46
2023-01-09T04:14:13.363Z,969.46
2023-01-09T04:15:13.347Z,969.49
2023-01-09T04:16:13.380Z,969.50
2023-01-09T04:17:13.345Z,969.60
2023-01-09T04:18:13.312Z,969.66
2023-01-09T04:19:13.329Z,969.71
2023-01-09T04:20:13.298Z,969.67
2023-01-09T04:21:13.282Z,969.80
2023-01-09T04:22:13.276Z,969.84
2023-01-09T04:23:13.278Z,969.91
2023-01-09T04:24:13.262Z,969.98
2023-01-09T04:25:13.242Z,970.07
2023-01-09T04:26:13.230Z,970.20
2023-01-09T04:27:13.218Z,970.14
2023-01-09T04:28:13.208Z,970.15
2023-01-09T04:29:13.218Z,970.13
2023-01-09T04:30:13.187Z,970.16
2023-01-09T04:31:13.190Z,970.15
2023-01-09T04:32:13.180Z,970.10
2023-01-09T04:33:13.160Z,970.14
2023-01-09T04:34:13.161Z,970.14
2023-01-09T04:35:13.133Z,970.10
2023-01-09T04:36:13.149Z,970.13
2023-01-09T04:37:13.114Z,970.17
2023-01-09T04:38:13.114Z,970.15
2023-01-09T04:39:13.119Z,970.17
2023-01-09T04:40:13.087Z,970.16
2023-01-09T04:41:13.071Z,970.14
2023-01-09T04:42:13.066Z,970.09
2023-01-09T04:43:13.053Z,970.07
2023-01-09T04:44:13.073Z,970.11
2023-01-09T04:45:13.039Z,970.15
2023-01-09T04:46:13.056Z,970.13
2023-01-09T04:47:13.016Z,970.13
2023-01-09T04:48:13.004Z,970.14
2023-01-09T04:49:12.995Z,970.12
2023-01-09T04:50:12.995Z,970.17
2023-01-09T04:51:14.089Z,970.15
2023-01-09T04:52:13.963Z,970.21
2023-01-09T04:53:12.954Z,970.16
2023-01-09T04:54:12.945Z,970.22
2023-01-09T04:55:12.952Z,970.31
2023-01-09T04:56:12.932Z,970.29
2023-01-09T04:57:12.904Z,970.35
2023-01-09T04:58:12.908Z,970.35
2023-01-09T04:59:12.905Z,970.36
2023-01-09T05:00:12.895Z,970.42
2023-01-09T05:01:13.001Z,970.45
2023-01-09T05:02:12.960Z,970.52
2023-01-09T05:03:12.846Z,970.56
2023-01-09T05:04:12.871Z,970.58
2023-01-09T05:05:12.840Z,970.52
2023-01-09T05:06:12.824Z,970.57
2023-01-09T05:07:12.835Z,970.68
2023-01-09T05:08:12.805Z,970.69
2023-01-09T05:09:12.811Z,970.73
2023-01-09T05:10:12.773Z,970.63
2023-01-09T05:11:12.781Z,970.72
2023-01-09T05:12:12.769Z,970.73
2023-01-09T05:13:12.775Z,970.81
2023-01-09T05:14:12.741Z,970.82
2023-01-09T05:15:13.738Z,970.89
2023-01-09T05:16:12.770Z,970.91
2023-01-09T05:17:12.717Z,970.89
2023-01-09T05:18:12.724Z,970.99
2023-01-09T05:19:12.866Z,971.01
2023-01-09T05:20:12.686Z,970.93
2023-01-09T05:21:12.686Z,970.95
2023-01-09T05:22:12.654Z,970.98
2023-01-09T05:23:12.674Z,971.00
2023-01-09T05:24:12.634Z,971.00
2023-01-09T05:25:12.630Z,971.03
2023-01-09T05:26:12.620Z,970.96
2023-01-09T05:27:12.624Z,971.00
2023-01-09T05:28:12.597Z,971.01
2023-01-09T05:29:12.607Z,971.01
2023-01-09T05:30:13.688Z,971.12
2023-01-09T05:31:13.672Z,971.19
2023-01-09T05:32:12.558Z,971.13
2023-01-09T05:33:12.566Z,971.15
2023-01-09T05:34:12.551Z,971.16
2023-01-09T05:35:12.561Z,971.13
2023-01-09T05:36:12.538Z,971.18
2023-01-09T05:37:12.511Z,971.21
2023-01-09T05:38:12.503Z,971.20
2023-01-09T05:39:12.500Z,971.16
2023-01-09T05:40:12.517Z,971.17
2023-01-09T05:41:12.497Z,971.21
2023-01-09T05:42:12.462Z,971.26
2023-01-09T05:43:12.459Z,971.25
2023-01-09T05:44:12.453Z,971.35
2023-01-09T05:45:12.437Z,971.37
2023-01-09T05:46:12.456Z,971.38
2023-01-09T05:47:12.435Z,971.38
2023-01-09T05:48:12.394Z,971.46
2023-01-09T05:49:12.385Z,971.44
2023-01-09T05:50:12.380Z,971.42
2023-01-09T05:51:12.376Z,971.48
2023-01-09T05:52:12.384Z,971.59
2023-01-09T05:53:12.346Z,971.49
2023-01-09T05:54:12.343Z,971.60
2023-01-09T05:55:12.347Z,971.76
2023-01-09T05:56:12.343Z,971.72
2023-01-09T05:57:12.318Z,971.75
2023-01-09T05:58:12.294Z,971.75
2023-01-09T05:59:12.294Z,971.76
2023-01-09T06:00:12.300Z,971.64
2023-01-09T06:01:12.278Z,971.70
2023-01-09T06:02:12.344Z,971.76
2023-01-09T06:03:12.317Z,971.75
2023-01-09T06:04:12.243Z,971.80
2023-01-09T06:05:12.246Z,971.77
2023-01-09T06:06:12.230Z,971.82
2023-01-09T06:07:15.528Z,971.79
2023-01-09T06:08:12.197Z,971.78
2023-01-09T06:09:12.208Z,971.79
2023-01-09T06:10:12.187Z,971.79
2023-01-09T06:11:12.173Z,971.80
2023-01-09T06:12:12.154Z,971.73
2023-01-09T06:13:12.164Z,971.85
2023-01-09T06:14:12.139Z,971.87
2023-01-09T06:15:12.148Z,971.88
2023-01-09T06:16:13.151Z,971.91
2023-01-09T06:17:12.136Z,972.00
2023-01-09T06:18:12.095Z,971.93
2023-01-09T06:19:12.092Z,971.95
2023-01-09T06:20:12.076Z,971.83
2023-01-09T06:21:12.060Z,971.88
2023-01-09T06:22:12.056Z,971.94
2023-01-09T06:23:13.471Z,971.93
2023-01-09T06:24:13.061Z,971.97
2023-01-09T06:25:12.038Z,972.02
2023-01-09T06:26:12.024Z,972.04
2023-01-09T06:27:13.046Z,972.08
2023-01-09T06:28:11.998Z,972.04
2023-01-09T06:29:11.986Z,972.11
2023-01-09T06:30:11.993Z,972.09
2023-01-09T06:31:12.991Z,972.14
2023-01-09T06:32:11.959Z,972.14
2023-01-09T06:33:11.944Z,972.12
2023-01-09T06:34:11.943Z,972.13
2023-01-09T06:35:11.923Z,972.15
2023-01-09T06:36:11.935Z,972.16
2023-01-09T06:37:11.936Z,972.13
2023-01-09T06:38:11.894Z,972.19
2023-01-09T06:39:11.882Z,972.15
2023-01-09T06:40:11.898Z,972.16
2023-01-09T06:41:11.865Z,972.13
2023-01-09T06:42:11.845Z,972.13
2023-01-09T06:43:11.843Z,972.08
2023-01-09T06:44:11.818Z,972.15
2023-01-09T06:45:11.842Z,972.11
2023-01-09T06:46:11.847Z,972.13
2023-01-09T06:47:11.796Z,972.13
2023-01-09T06:48:11.801Z,972.17
2023-01-09T06:49:11.783Z,972.21
2023-01-09T06:50:11.770Z,972.16
2023-01-09T06:51:11.783Z,972.16
2023-01-09T06:52:11.766Z,972.15
2023-01-09T06:53:11.743Z,972.18
2023-01-09T06:54:11.743Z,972.24
2023-01-09T06:55:11.724Z,972.26
2023-01-09T06:56:11.734Z,972.21
2023-01-09T06:57:11.705Z,972.24
2023-01-09T06:58:11.714Z,972.31
2023-01-09T06:59:11.685Z,972.36
2023-01-09T07:00:11.666Z,972.33
2023-01-09T07:01:11.746Z,972.34
2023-01-09T07:02:11.688Z,972.28
2023-01-09T07:03:12.660Z,972.33
2023-01-09T07:04:11.658Z,972.30
2023-01-09T07:05:11.630Z,972.30
2023-01-09T07:06:11.619Z,972.31
2023-01-09T07:07:11.598Z,972.34
2023-01-09T07:08:11.614Z,972.32
2023-01-09T07:09:11.594Z,972.34
2023-01-09T07:10:11.575Z,972.35
2023-01-09T07:11:11.577Z,972.31
2023-01-09T07:12:11.569Z,972.38
2023-01-09T07:13:11.561Z,972.46
2023-01-09T07:14:11.566Z,972.35
2023-01-09T07:15:11.527Z,972.45
2023-01-09T07:16:11.563Z,972.43
2023-01-09T07:17:11.519Z,972.53
2023-01-09T07:18:11.491Z,972.48
2023-01-09T07:19:11.525Z,972.54
2023-01-09T07:20:11.466Z,972.54
2023-01-09T07:21:11.528Z,972.56
2023-01-09T07:22:11.483Z,972.62
2023-01-09T07:23:11.450Z,972.57
2023-01-09T07:24:11.445Z,972.60
2023-01-09T07:25:11.468Z,972.61
2023-01-09T07:26:11.422Z,972.63
2023-01-09T07:27:11.419Z,972.62
2023-01-09T07:28:11.396Z,972.67
2023-01-09T07:29:11.393Z,972.64
2023-01-09T07:30:11.406Z,972.68
2023-01-09T07:31:11.381Z,972.77
2023-01-09T07:32:11.357Z,972.78
2023-01-09T07:33:11.381Z,972.85
2023-01-09T07:34:11.337Z,972.90
2023-01-09T07:35:11.331Z,972.89
2023-01-09T07:36:11.338Z,972.97
2023-01-09T07:37:11.355Z,972.94
2023-01-09T07:38:11.297Z,972.98
2023-01-09T07:39:11.313Z,973.02
2023-01-09T07:40:11.291Z,973.06
2023-01-09T07:41:11.289Z,973.05
2023-01-09T07:42:11.289Z,973.07
2023-01-09T07:43:11.251Z,973.00
2023-01-09T07:44:11.338Z,973.06
2023-01-09T07:45:11.229Z,973.02
2023-01-09T07:46:11.306Z,973.08
2023-01-09T07:47:11.218Z,973.04
2023-01-09T07:48:11.201Z,973.12
2023-01-09T07:49:11.209Z,973.13
2023-01-09T07:50:11.211Z,973.13
2023-01-09T07:51:11.205Z,973.10
2023-01-09T07:52:43.059Z,973.15
2023-01-09T07:53:11.172Z,973.12
2023-01-09T07:54:11.143Z,973.16
2023-01-09T07:55:11.158Z,973.18
2023-01-09T07:56:11.131Z,973.20
2023-01-09T07:57:11.115Z,973.18
2023-01-09T07:58:11.141Z,973.18
2023-01-09T07:59:11.106Z,973.22
2023-01-09T08:00:11.112Z,973.21
2023-01-09T08:01:11.220Z,973.24
2023-01-09T08:02:11.137Z,973.27
2023-01-09T08:03:11.137Z,973.29
2023-01-09T08:04:11.060Z,973.24
2023-01-09T08:05:11.047Z,973.28
2023-01-09T08:06:11.055Z,973.32
2023-01-09T08:07:11.044Z,973.29
2023-01-09T08:08:11.010Z,973.29
2023-01-09T08:09:11.007Z,973.29
2023-01-09T08:10:11.023Z,973.34
2023-01-09T08:11:10.977Z,973.29
2023-01-09T08:12:10.969Z,973.31
2023-01-09T08:13:10.975Z,973.28
2023-01-09T08:14:10.983Z,973.28
2023-01-09T08:15:10.976Z,973.28
2023-01-09T08:16:10.960Z,973.25
2023-01-09T08:17:10.942Z,973.24
2023-01-09T08:18:10.944Z,973.25
2023-01-09T08:19:10.919Z,973.27
2023-01-09T08:20:10.902Z,973.26
2023-01-09T08:21:10.890Z,973.29
2023-01-09T08:22:10.877Z,973.24
2023-01-09T08:23:10.881Z,973.25
2023-01-09T08:24:10.863Z,973.33
2023-01-09T08:25:12.476Z,973.29
2023-01-09T08:26:11.836Z,973.21
2023-01-09T08:27:10.840Z,973.27
2023-01-09T08:28:10.815Z,973.19
2023-01-09T08:29:10.825Z,973.21
2023-01-09T08:30:10.815Z,973.23
2023-01-09T08:31:10.842Z,973.24
2023-01-09T08:32:10.777Z,973.25
2023-01-09T08:33:10.773Z,973.23
2023-01-09T08:34:10.820Z,973.27
2023-01-09T08:35:10.756Z,973.32
2023-01-09T08:36:10.872Z,973.34
2023-01-09T08:37:10.833Z,973.32
2023-01-09T08:38:10.734Z,973.36
2023-01-09T08:39:10.710Z,973.32
2023-01-09T08:40:10.736Z,973.36
2023-01-09T08:41:10.686Z,973.30
2023-01-09T08:42:10.680Z,973.35
2023-01-09T08:43:10.678Z,973.35
2023-01-09T08:44:10.684Z,973.36
2023-01-09T08:45:10.671Z,973.45
2023-01-09T08:46:10.712Z,973.42
2023-01-09T08:47:10.615Z,973.42
2023-01-09T08:48:10.622Z,973.40
2023-01-09T08:49:10.753Z,973.47
2023-01-09T08:50:10.620Z,973.52
2023-01-09T08:51:10.601Z,973.52
2023-01-09T08:52:10.619Z,973.54
2023-01-09T08:53:10.586Z,973.49
2023-01-09T08:54:10.559Z,973.52
2023-01-09T08:55:10.593Z,973.50
2023-01-09T08:56:10.562Z,973.47
2023-01-09T08:57:10.533Z,973.47
2023-01-09T08:58:10.548Z,973.43
2023-01-09T08:59:10.507Z,973.52
2023-01-09T09:00:10.498Z,973.51
2023-01-09T09:01:10.608Z,973.39
2023-01-09T09:02:10.491Z,973.45
2023-01-09T09:03:10.489Z,973.50
2023-01-09T09:04:10.527Z,973.46
2023-01-09T09:05:10.453Z,973.57
2023-01-09T09:06:10.518Z,973.40
2023-01-09T09:07:10.442Z,973.50
2023-01-09T09:08:10.461Z,973.44
2023-01-09T09:09:10.430Z,973.32
2023-01-09T09:10:10.408Z,973.40
2023-01-09T09:11:10.410Z,973.42
2023-01-09T09:12:10.388Z,973.37
2023-01-09T09:13:10.366Z,973.43
2023-01-09T09:14:10.379Z,973.46
2023-01-09T09:15:10.358Z,973.44
2023-01-09T09:16:10.450Z,973.48
2023-01-09T09:17:10.348Z,973.45
2023-01-09T09:18:10.314Z,973.43
2023-01-09T09:19:10.307Z,973.46
2023-01-09T09:20:10.304Z,973.48
2023-01-09T09:21:11.506Z,973.46
2023-01-09T09:22:11.279Z,973.48
2023-01-09T09:23:10.260Z,973.46
2023-01-09T09:24:10.261Z,973.40
2023-01-09T09:25:10.253Z,973.40
2023-01-09T09:26:10.259Z,973.55
2023-01-09T09:27:10.230Z,973.52
2023-01-09T09:28:10.216Z,973.54
2023-01-09T09:29:10.215Z,973.58
2023-01-09T09:30:10.195Z,973.57
2023-01-09T09:31:10.273Z,973.56
2023-01-09T09:32:10.182Z,973.62
2023-01-09T09:33:10.159Z,973.60
2023-01-09T09:34:11.166Z,973.63
2023-01-09T09:35:10.173Z,973.64
2023-01-09T09:36:10.157Z,973.60
2023-01-09T09:37:10.261Z,973.70
2023-01-09T09:38:10.131Z,973.71
2023-01-09T09:39:10.125Z,973.73
2023-01-09T09:40:18.370Z,973.77
2023-01-09T09:41:11.098Z,973.72
2023-01-09T09:42:10.157Z,973.75
2023-01-09T09:43:10.096Z,973.82
2023-01-09T09:44:10.064Z,973.80
2023-01-09T09:45:10.062Z,973.75
2023-01-09T09:46:10.128Z,973.77
2023-01-09T09:47:10.132Z,973.79
2023-01-09T09:48:10.027Z,973.82
2023-01-09T09:49:10.080Z,973.77
2023-01-09T09:50:09.998Z,973.87
2023-01-09T09:51:09.998Z,973.85
2023-01-09T09:52:10.041Z,973.94
2023-01-09T09:53:09.987Z,973.96
2023-01-09T09:54:10.875Z,973.87
2023-01-09T09:55:09.964Z,973.87
2023-01-09T09:56:09.927Z,973.90
2023-01-09T09:57:09.945Z,973.92
2023-01-09T09:58:09.914Z,973.90
2023-01-09T09:59:09.916Z,973.95
2023-01-09T10:00:09.929Z,973.88
2023-01-09T10:01:09.891Z,973.96
2023-01-09T10:02:09.942Z,973.90
2023-01-09T10:03:09.882Z,973.89
2023-01-09T10:04:09.860Z,973.80
2023-01-09T10:05:09.896Z,973.89
2023-01-09T10:06:09.824Z,973.83
2023-01-09T10:07:09.845Z,973.84
2023-01-09T10:08:15.672Z,973.80
2023-01-09T10:09:11.806Z,973.83
2023-01-09T10:10:09.816Z,973.83
2023-01-09T10:11:09.809Z,973.89
2023-01-09T10:12:09.792Z,973.81
2023-01-09T10:13:09.778Z,973.88
2023-01-09T10:14:22.939Z,973.81
2023-01-09T10:15:10.758Z,973.91
2023-01-09T10:16:09.773Z,973.85
2023-01-09T10:17:09.747Z,973.92
2023-01-09T10:18:09.844Z,973.84
2023-01-09T10:19:09.703Z,973.88
2023-01-09T10:20:09.717Z,973.77
2023-01-09T10:21:09.750Z,973.81
2023-01-09T10:22:09.733Z,973.82
2023-01-09T10:23:09.675Z,973.79
2023-01-09T10:24:09.662Z,973.80
2023-01-09T10:25:09.851Z,973.76
2023-01-09T10:26:09.663Z,973.78
2023-01-09T10:27:09.636Z,973.80
2023-01-09T10:28:09.626Z,973.78
2023-01-09T10:29:09.630Z,973.83
2023-01-09T10:30:09.614Z,973.76
2023-01-09T10:31:09.732Z,973.72
2023-01-09T10:32:09.569Z,973.74
2023-01-09T10:33:09.589Z,973.75
2023-01-09T10:34:09.620Z,973.77
2023-01-09T10:35:09.588Z,973.70
2023-01-09T10:36:09.576Z,973.79
2023-01-09T10:37:09.633Z,973.74
2023-01-09T10:38:09.566Z,973.81
2023-01-09T10:39:09.511Z,973.78
2023-01-09T10:40:09.518Z,973.83
2023-01-09T10:41:09.506Z,973.79
2023-01-09T10:42:09.505Z,973.78
2023-01-09T10:43:09.486Z,973.74
2023-01-09T10:44:09.463Z,973.79
2023-01-09T10:45:09.473Z,973.81
2023-01-09T10:46:09.505Z,973.84
2023-01-09T10:47:09.551Z,973.82
2023-01-09T10:48:09.425Z,973.82
2023-01-09T10:49:09.507Z,973.84
2023-01-09T10:50:09.494Z,973.81
2023-01-09T10:51:09.474Z,973.81
2023-01-09T10:52:09.397Z,973.85
2023-01-09T10:53:09.443Z,973.86
2023-01-09T10:54:09.374Z,973.83
2023-01-09T10:55:09.355Z,973.90
2023-01-09T10:56:09.409Z,973.86
2023-01-09T10:57:09.348Z,973.91
2023-01-09T10:58:09.347Z,973.91
2023-01-09T10:59:09.326Z,973.87
2023-01-09T11:00:09.315Z,973.87
2023-01-09T11:01:09.347Z,973.88
2023-01-09T11:02:09.309Z,973.89
2023-01-09T11:03:09.319Z,973.84
2023-01-09T11:04:09.311Z,973.84
2023-01-09T11:05:09.273Z,973.89
2023-01-09T11:06:09.262Z,973.83
2023-01-09T11:07:09.250Z,973.84
2023-01-09T11:08:09.269Z,973.82
2023-01-09T11:09:09.248Z,973.87
2023-01-09T11:10:09.222Z,973.82
2023-01-09T11:11:09.227Z,973.85
2023-01-09T11:12:09.204Z,973.86
2023-01-09T11:13:09.227Z,973.88
2023-01-09T11:14:09.211Z,973.89
2023-01-09T11:15:09.162Z,973.88
2023-01-09T11:16:09.416Z,973.91
2023-01-09T11:17:09.166Z,973.91
2023-01-09T11:18:09.141Z,973.87
2023-01-09T11:19:09.151Z,973.91
2023-01-09T11:20:09.134Z,973.91
2023-01-09T11:21:09.283Z,973.97
2023-01-09T11:22:09.196Z,973.98
2023-01-09T11:23:09.106Z,973.92
2023-01-09T11:24:09.076Z,973.90
2023-01-09T11:25:09.060Z,973.90
2023-01-09T11:26:10.991Z,973.91
2023-01-09T11:27:10.055Z,973.89
2023-01-09T11:28:09.135Z,973.91
2023-01-09T11:29:09.027Z,973.89
2023-01-09T11:30:09.038Z,973.84
2023-01-09T11:31:09.043Z,973.90
2023-01-09T11:32:09.116Z,973.90
2023-01-09T11:33:09.008Z,973.95
2023-01-09T11:34:08.989Z,973.90
2023-01-09T11:35:08.970Z,973.91
2023-01-09T11:36:09.018Z,973.90
2023-01-09T11:37:08.995Z,973.86
2023-01-09T11:38:08.951Z,973.86
2023-01-09T11:39:08.928Z,973.79
2023-01-09T11:40:08.926Z,973.87
2023-01-09T11:41:09.003Z,973.84
2023-01-09T11:42:08.909Z,973.80
2023-01-09T11:43:08.899Z,973.81
2023-01-09T11:44:08.890Z,973.87
2023-01-09T11:45:08.875Z,973.78
2023-01-09T11:46:08.905Z,973.83
2023-01-09T11:47:08.847Z,973.76
2023-01-09T11:48:08.853Z,973.76
2023-01-09T11:49:08.935Z,973.68
2023-01-09T11:50:08.820Z,973.74
2023-01-09T11:51:09.013Z,973.72
2023-01-09T11:52:08.800Z,973.76
2023-01-09T11:53:08.962Z,973.73
2023-01-09T11:54:08.809Z,973.82
2023-01-09T11:55:08.774Z,973.80
2023-01-09T11:56:08.766Z,973.80
2023-01-09T11:57:08.776Z,973.81
2023-01-09T11:58:08.754Z,973.81
2023-01-09T11:59:08.735Z,973.82
2023-01-09T12:00:08.736Z,973.75
2023-01-09T12:01:08.720Z,973.75
2023-01-09T12:02:08.741Z,973.77
2023-01-09T12:03:08.742Z,973.77
2023-01-09T12:04:08.674Z,973.72
2023-01-09T12:05:08.673Z,973.75
2023-01-09T12:06:08.679Z,973.77
2023-01-09T12:07:08.675Z,973.77
2023-01-09T12:08:08.645Z,973.76
2023-01-09T12:09:08.631Z,973.71
2023-01-09T12:10:08.643Z,973.74
2023-01-09T12:11:08.619Z,973.76
2023-01-09T12:12:08.596Z,973.76
2023-01-09T12:13:08.587Z,973.78
2023-01-09T12:14:08.588Z,973.73
2023-01-09T12:15:10.032Z,973.71
2023-01-09T12:16:09.659Z,973.74
2023-01-09T12:17:08.552Z,973.74
2023-01-09T12:18:08.545Z,973.73
2023-01-09T12:19:08.549Z,973.72
2023-01-09T12:20:08.556Z,973.71
2023-01-09T12:21:08.507Z,973.73
2023-01-09T12:22:08.492Z,973.74
2023-01-09T12:23:08.487Z,973.70
2023-01-09T12:24:08.475Z,973.74
2023-01-09T12:25:08.474Z,973.71
2023-01-09T12:26:08.477Z,973.77
2023-01-09T12:27:08.459Z,973.72
2023-01-09T12:28:08.436Z,973.78